Time;durP1;ratioP1;P1;durP2;ratioP2;P2;SDS_P1;SDS_P2;PMS_P1;PMS_P2;Temp;Humidity;BMP_temperature;BMP_pressure;BME280_temperature;BME280_humidity;BME280_pressure;Samples;Min_cycle;Max_cycle;Signal;HPM_P1;HPM_P2
2023/06/04 00:00:03;;;;;;;1.52;1.33;;;10.30;93.30;;;;;;5003308;28;20266;-85
2023/06/04 00:02:29;;;;;;;2.47;1.23;;;10.20;93.60;;;;;;5010520;28;20550;-85
2023/06/04 00:04:54;;;;;;;1.52;1.10;;;10.20;93.90;;;;;;5009930;28;20220;-86
2023/06/04 00:07:20;;;;;;;3.00;1.48;;;10.20;94.00;;;;;;4994418;28;20198;-86
2023/06/04 00:09:46;;;;;;;1.80;1.40;;;10.10;94.20;;;;;;4995503;28;20183;-86
2023/06/04 00:12:13;;;;;;;2.13;1.30;;;10.10;94.80;;;;;;4995597;28;20196;-87
2023/06/04 00:14:38;;;;;;;5.70;1.52;;;10.00;94.90;;;;;;4993904;28;20686;-86
2023/06/04 00:17:04;;;;;;;3.75;1.00;;;9.90;94.90;;;;;;4994184;28;20180;-86
2023/06/04 00:19:30;;;;;;;1.80;1.27;;;9.90;95.50;;;;;;4993838;28;20304;-86
2023/06/04 00:21:56;;;;;;;2.17;1.15;;;9.90;95.30;;;;;;4995104;28;20180;-86
2023/06/04 00:24:21;;;;;;;1.83;1.13;;;9.90;95.50;;;;;;4993947;28;20261;-86
2023/06/04 00:26:47;;;;;;;1.23;1.13;;;9.90;95.60;;;;;;4993974;28;20241;-85
2023/06/04 00:29:13;;;;;;;1.63;1.10;;;10.00;95.50;;;;;;4998579;28;20389;-85
2023/06/04 00:31:39;;;;;;;1.40;1.20;;;9.90;95.50;;;;;;5014602;28;20226;-85
2023/06/04 00:34:05;;;;;;;2.80;1.25;;;9.80;96.00;;;;;;5029956;28;20176;-85
2023/06/04 00:36:31;;;;;;;1.92;1.33;;;9.80;96.20;;;;;;5014786;28;20253;-85
2023/06/04 00:38:56;;;;;;;1.98;1.17;;;9.70;96.20;;;;;;5029915;28;20222;-85
2023/06/04 00:41:23;;;;;;;1.50;1.30;;;9.60;96.80;;;;;;5013640;28;20206;-86
2023/06/04 00:43:55;;;;;;;2.22;1.33;;;9.60;96.70;;;;;;5012739;28;20211;-84
2023/06/04 00:46:26;;;;;;;1.60;1.20;;;9.60;96.80;;;;;;5013432;28;20171;-86
2023/06/04 00:48:53;;;;;;;1.70;1.27;;;9.60;96.80;;;;;;5029869;28;20175;-85
2023/06/04 00:51:23;;;;;;;2.55;1.17;;;9.60;97.00;;;;;;5029681;28;20171;-84
2023/06/04 00:53:51;;;;;;;3.90;1.38;;;9.60;97.40;;;;;;5013033;28;20519;-85
2023/06/04 00:56:18;;;;;;;2.50;1.20;;;9.60;97.00;;;;;;5012617;28;20246;-85
2023/06/04 00:58:46;;;;;;;1.57;1.10;;;9.80;97.50;;;;;;5014143;28;20207;-85
2023/06/04 01:01:47;;;;;;;3.30;1.17;;;9.80;97.70;;;;;;5014131;28;20171;-85
2023/06/04 01:04:20;;;;;;;1.73;1.15;;;9.80;98.00;;;;;;5012950;28;20210;-85
2023/06/04 01:06:51;;;;;;;4.43;1.50;;;9.60;98.60;;;;;;5029162;28;20175;-85
2023/06/04 01:09:17;;;;;;;4.13;1.40;;;9.60;98.40;;;;;;5012995;28;20171;-85
2023/06/04 01:11:43;;;;;;;3.80;1.40;;;9.60;99.10;;;;;;5014085;28;20182;-85
2023/06/04 01:14:10;;;;;;;2.75;1.20;;;9.50;99.10;;;;;;5029153;28;20179;-85
2023/06/04 01:16:49;;;;;;;1.85;1.30;;;9.40;99.50;;;;;;5014081;28;20182;-85
2023/06/04 01:19:42;;;;;;;3.63;1.63;;;9.50;99.60;;;;;;5012658;28;20167;-85
2023/06/04 01:22:37;;;;;;;3.17;1.50;;;9.40;99.80;;;;;;5014113;28;20194;-85
2023/06/04 01:25:06;;;;;;;2.58;1.30;;;9.30;99.70;;;;;;5012183;28;20219;-85
2023/06/04 01:27:32;;;;;;;3.92;1.58;;;9.20;99.90;;;;;;5012654;28;20205;-85
2023/06/04 01:30:00;;;;;;;3.08;1.50;;;9.20;99.90;;;;;;5003076;28;20236;-85
2023/06/04 01:32:26;;;;;;;5.40;1.40;;;9.20;99.90;;;;;;4992905;28;20211;-86
2023/06/04 01:34:52;;;;;;;2.70;1.00;;;9.20;99.90;;;;;;4994393;28;20178;-86
2023/06/04 01:37:18;;;;;;;1.67;1.10;;;9.20;99.90;;;;;;4993246;28;20267;-86
2023/06/04 01:39:44;;;;;;;1.77;1.20;;;9.30;99.90;;;;;;4994238;28;20180;-85
2023/06/04 01:42:10;;;;;;;2.13;1.30;;;9.20;99.90;;;;;;4992767;28;20238;-84
2023/06/04 01:44:37;;;;;;;1.60;1.23;;;9.20;99.90;;;;;;4992665;28;20222;-85
2023/06/04 01:47:03;;;;;;;1.37;1.17;;;9.20;99.90;;;;;;4994252;28;20626;-85
2023/06/04 01:49:28;;;;;;;2.15;1.17;;;9.20;99.90;;;;;;4994276;28;20258;-85
2023/06/04 01:51:56;;;;;;;3.43;1.20;;;9.10;99.90;;;;;;4993059;28;20184;-86
2023/06/04 01:54:22;;;;;;;1.97;1.20;;;9.10;99.90;;;;;;4994140;28;20560;-85
2023/06/04 01:56:48;;;;;;;2.70;1.20;;;9.10;99.90;;;;;;4992849;28;20195;-85
2023/06/04 01:59:16;;;;;;;3.13;1.43;;;9.10;99.90;;;;;;4996908;28;20203;-85
2023/06/04 02:01:42;;;;;;;2.80;1.43;;;9.00;99.90;;;;;;5012419;28;20226;-85
2023/06/04 02:04:08;;;;;;;2.97;1.27;;;8.90;99.90;;;;;;5013638;28;20203;-86
2023/06/04 02:06:33;;;;;;;3.43;1.20;;;8.70;99.90;;;;;;5012556;28;20190;-86
2023/06/04 02:09:00;;;;;;;3.10;1.23;;;8.50;99.90;;;;;;5012506;28;20187;-86
2023/06/04 02:11:26;;;;;;;1.70;1.40;;;8.40;99.90;;;;;;5012564;28;20190;-87
2023/06/04 02:13:51;;;;;;;2.85;1.55;;;8.40;99.90;;;;;;5013351;28;20171;-86
2023/06/04 02:16:17;;;;;;;1.80;1.40;;;8.30;99.90;;;;;;5012251;28;20187;-86
2023/06/04 02:18:43;;;;;;;2.08;1.63;;;8.30;99.90;;;;;;5016844;28;20179;-85
2023/06/04 02:21:08;;;;;;;2.07;1.37;;;8.20;99.90;;;;;;5015986;28;20219;-86
2023/06/04 02:23:34;;;;;;;1.87;1.20;;;8.30;99.90;;;;;;5016898;28;20589;-86
2023/06/04 02:26:00;;;;;;;2.17;1.33;;;8.30;99.90;;;;;;5017204;28;20179;-86
2023/06/04 02:28:26;;;;;;;1.60;1.27;;;8.30;99.90;;;;;;5017126;28;20302;-87
2023/06/04 02:30:51;;;;;;;2.33;1.30;;;8.20;99.90;;;;;;5015568;28;20622;-87
2023/06/04 02:33:20;;;;;;;1.87;1.30;;;8.10;99.90;;;;;;5032319;28;20314;-87
2023/06/04 02:35:46;;;;;;;2.80;1.40;;;8.10;99.90;;;;;;5015934;28;20191;-86
2023/06/04 02:38:12;;;;;;;2.30;1.40;;;8.00;99.90;;;;;;5015700;28;20270;-86
2023/06/04 02:40:38;;;;;;;2.63;1.30;;;8.00;99.90;;;;;;5016783;28;20179;-86
2023/06/04 02:43:04;;;;;;;5.47;1.30;;;8.10;99.90;;;;;;5015373;28;20183;-86
2023/06/04 02:45:29;;;;;;;3.33;1.43;;;8.20;99.90;;;;;;5031884;28;20187;-87
2023/06/04 02:47:55;;;;;;;2.33;1.40;;;8.30;99.90;;;;;;5015616;28;20271;-87
2023/06/04 02:50:21;;;;;;;2.20;1.13;;;8.20;99.90;;;;;;5015536;28;20194;-86
2023/06/04 02:52:48;;;;;;;1.93;1.40;;;8.20;99.90;;;;;;5015284;28;20246;-86
2023/06/04 02:55:13;;;;;;;1.33;0.90;;;8.10;99.90;;;;;;5031729;28;20215;-86
2023/06/04 02:57:42;;;;;;;2.47;1.50;;;8.10;99.90;;;;;;5016619;28;20210;-87
2023/06/04 03:00:12;;;;;;;2.07;1.20;;;8.10;99.90;;;;;;5016075;28;20634;-86
2023/06/04 03:02:48;;;;;;;1.70;1.13;;;8.10;99.90;;;;;;5016281;28;20175;-87
2023/06/04 03:05:15;;;;;;;1.70;1.30;;;8.10;99.90;;;;;;5031665;28;20221;-87
2023/06/04 03:07:45;;;;;;;3.13;1.67;;;8.00;99.90;;;;;;5015138;28;20175;-87
2023/06/04 03:10:12;;;;;;;1.87;1.50;;;8.00;99.90;;;;;;5016441;28;20184;-87
2023/06/04 03:12:40;;;;;;;5.30;1.30;;;7.90;99.90;;;;;;5016256;28;20575;-87
2023/06/04 03:15:06;;;;;;;9.43;1.50;;;8.00;99.90;;;;;;5014975;28;20230;-87
2023/06/04 03:17:32;;;;;;;3.93;1.37;;;8.10;99.90;;;;;;5031574;28;20186;-86
2023/06/04 03:19:57;;;;;;;2.27;1.37;;;8.10;99.90;;;;;;5031284;28;20183;-86
2023/06/04 03:22:23;;;;;;;3.03;1.17;;;8.10;99.90;;;;;;5016303;28;20183;-88
2023/06/04 03:24:49;;;;;;;2.23;1.40;;;8.10;99.90;;;;;;5016392;28;20243;-88
2023/06/04 03:27:15;;;;;;;1.50;1.20;;;8.10;99.90;;;;;;5015206;28;20577;-88
2023/06/04 03:29:40;;;;;;;3.03;1.53;;;8.00;99.90;;;;;;5021931;28;20235;-88
2023/06/04 03:32:07;;;;;;;2.60;1.40;;;7.90;99.90;;;;;;4995381;28;20515;-87
2023/06/04 03:34:33;;;;;;;5.70;1.70;;;7.90;99.90;;;;;;4994914;28;20211;-87
2023/06/04 03:36:59;;;;;;;3.83;1.60;;;7.80;99.90;;;;;;4995049;28;20214;-87
2023/06/04 03:39:25;;;;;;;4.20;1.57;;;7.90;99.90;;;;;;4996091;28;20607;-87
2023/06/04 03:41:54;;;;;;;2.77;1.40;;;7.80;99.90;;;;;;4994813;28;20186;-87
2023/06/04 03:44:22;;;;;;;2.97;1.70;;;7.60;99.90;;;;;;4994487;28;20322;-86
2023/06/04 03:46:48;;;;;;;4.03;1.57;;;7.60;99.90;;;;;;4994596;28;20187;-87
2023/06/04 03:49:14;;;;;;;2.90;1.50;;;7.50;99.90;;;;;;4995783;28;20188;-87
2023/06/04 03:51:41;;;;;;;1.70;1.33;;;7.50;99.90;;;;;;4994410;28;20238;-88
2023/06/04 03:54:07;;;;;;;2.70;1.57;;;7.60;99.90;;;;;;4994498;28;20172;-87
2023/06/04 03:56:33;;;;;;;5.27;1.70;;;7.70;99.90;;;;;;4994470;28;20195;-86
2023/06/04 03:58:59;;;;;;;2.43;1.60;;;7.80;99.90;;;;;;4980426;28;20184;-87
2023/06/04 04:01:25;;;;;;;1.77;1.30;;;7.80;99.90;;;;;;5013792;28;20187;-87
2023/06/04 04:03:52;;;;;;;1.93;1.30;;;7.80;99.90;;;;;;5013660;28;20207;-87
2023/06/04 04:06:18;;;;;;;2.77;1.40;;;7.80;99.90;;;;;;5013870;28;20203;-87
2023/06/04 04:08:44;;;;;;;2.00;1.53;;;7.80;99.90;;;;;;5013940;28;20194;-87
2023/06/04 04:11:17;;;;;;;3.70;1.53;;;8.00;99.90;;;;;;5030257;28;20233;-87
2023/06/04 04:13:45;;;;;;;2.97;1.67;;;8.00;99.90;;;;;;5014915;28;20175;-87
2023/06/04 04:16:10;;;;;;;4.43;1.50;;;8.00;99.90;;;;;;5013377;28;20179;-87
2023/06/04 04:18:36;;;;;;;2.43;1.40;;;8.10;99.90;;;;;;5015006;28;20532;-87
2023/06/04 04:21:03;;;;;;;2.57;1.40;;;8.20;99.90;;;;;;5013666;28;20182;-87
2023/06/04 04:23:31;;;;;;;2.70;1.47;;;8.40;99.90;;;;;;5013349;28;20210;-87
2023/06/04 04:25:59;;;;;;;1.43;1.30;;;8.50;99.90;;;;;;5014858;28;20174;-87
2023/06/04 04:28:28;;;;;;;4.73;1.53;;;8.50;99.90;;;;;;5013610;28;20241;-88
2023/06/04 04:30:56;;;;;;;2.63;1.50;;;8.70;99.90;;;;;;5012920;28;20211;-87
2023/06/04 04:33:24;;;;;;;1.90;1.60;;;8.70;99.90;;;;;;5013325;28;20193;-87
2023/06/04 04:35:52;;;;;;;2.07;1.40;;;8.90;99.90;;;;;;5029832;28;20637;-88
2023/06/04 04:38:19;;;;;;;3.00;1.50;;;8.90;99.90;;;;;;5013406;28;20238;-87
2023/06/04 04:40:47;;;;;;;5.20;1.50;;;9.10;99.90;;;;;;5013029;28;20528;-87
2023/06/04 04:43:13;;;;;;;2.50;1.48;;;9.30;99.90;;;;;;5014147;28;20186;-87
2023/06/04 04:45:39;;;;;;;3.47;1.58;;;9.50;99.90;;;;;;5014115;28;20190;-88
2023/06/04 04:48:05;;;;;;;1.80;1.50;;;9.60;99.90;;;;;;5013261;28;20175;-87
2023/06/04 04:50:31;;;;;;;2.63;1.20;;;9.90;99.90;;;;;;5013061;28;20236;-88
2023/06/04 04:52:58;;;;;;;4.20;1.63;;;10.00;99.90;;;;;;5014058;28;20622;-87
2023/06/04 04:55:23;;;;;;;2.92;1.70;;;10.20;99.90;;;;;;5013195;28;20614;-87
2023/06/04 04:57:49;;;;;;;3.88;1.60;;;10.40;99.90;;;;;;5012846;28;20194;-87
2023/06/04 05:00:15;;;;;;;2.22;1.40;;;10.50;99.90;;;;;;5013671;28;20685;-88
2023/06/04 05:02:41;;;;;;;2.15;1.52;;;10.60;99.90;;;;;;5029344;28;20179;-87
2023/06/04 05:05:07;;;;;;;4.00;1.58;;;10.70;99.90;;;;;;5029431;28;20233;-88
2023/06/04 05:07:33;;;;;;;1.85;1.40;;;10.70;99.90;;;;;;5013228;28;20186;-88
2023/06/04 05:09:58;;;;;;;2.40;1.25;;;10.80;99.90;;;;;;5012652;28;20179;-88
2023/06/04 05:12:31;;;;;;;2.53;1.40;;;10.90;99.90;;;;;;5012719;28;20179;-87
2023/06/04 05:14:58;;;;;;;1.70;1.30;;;11.00;99.90;;;;;;5014001;28;20199;-87
2023/06/04 05:17:29;;;;;;;2.28;1.40;;;11.00;99.90;;;;;;5012869;28;20187;-88
2023/06/04 05:20:05;;;;;;;3.30;1.67;;;11.10;99.90;;;;;;5012842;28;20174;-88
2023/06/04 05:22:32;;;;;;;2.88;1.15;;;11.20;99.90;;;;;;5014055;28;20217;-87
2023/06/04 05:24:59;;;;;;;3.20;1.30;;;11.20;99.90;;;;;;5012410;28;20305;-87
2023/06/04 05:27:25;;;;;;;2.13;1.40;;;11.20;99.90;;;;;;5029105;28;20175;-87
2023/06/04 05:29:51;;;;;;;3.10;1.50;;;11.30;99.90;;;;;;5013389;28;20708;-87
2023/06/04 05:32:17;;;;;;;3.72;1.50;;;11.30;99.90;;;;;;5012618;28;20184;-88
2023/06/04 05:34:43;;;;;;;2.38;1.50;;;11.40;99.90;;;;;;5029068;28;20179;-87
2023/06/04 05:37:09;;;;;;;1.83;1.23;;;11.50;99.90;;;;;;5013924;28;20167;-86
2023/06/04 05:39:35;;;;;;;4.35;1.50;;;11.60;99.90;;;;;;5012244;28;20523;-86
2023/06/04 05:42:01;;;;;;;4.60;1.70;;;11.70;99.90;;;;;;5013387;28;20262;-86
2023/06/04 05:44:27;;;;;;;2.08;1.38;;;11.70;99.70;;;;;;5012294;28;20336;-87
2023/06/04 05:46:53;;;;;;;2.85;1.50;;;11.80;99.40;;;;;;5012472;28;20484;-87
2023/06/04 05:49:19;;;;;;;2.65;1.40;;;11.90;99.60;;;;;;5012390;28;20229;-87
2023/06/04 05:51:45;;;;;;;5.63;1.65;;;11.90;98.70;;;;;;5013807;28;20606;-87
2023/06/04 05:54:11;;;;;;;1.58;1.40;;;11.90;99.10;;;;;;5016077;28;20187;-87
2023/06/04 05:56:36;;;;;;;6.93;1.60;;;12.00;99.40;;;;;;5016156;28;20269;-88
2023/06/04 05:59:02;;;;;;;1.50;1.30;;;12.10;99.10;;;;;;5016157;28;20261;-88
2023/06/04 06:01:28;;;;;;;1.80;1.40;;;12.10;98.70;;;;;;5015943;28;20179;-86
2023/06/04 06:03:55;;;;;;;2.42;1.30;;;12.20;99.30;;;;;;5015831;28;20290;-87
2023/06/04 06:06:20;;;;;;;2.15;1.42;;;12.30;99.20;;;;;;5016193;28;20183;-88
2023/06/04 06:08:46;;;;;;;3.75;1.42;;;12.30;99.10;;;;;;5017093;28;20664;-88
2023/06/04 06:11:12;;;;;;;1.55;1.25;;;12.40;99.20;;;;;;5017095;28;20603;-88
2023/06/04 06:13:38;;;;;;;1.70;1.27;;;12.50;99.20;;;;;;5015906;28;20513;-87
2023/06/04 06:16:04;;;;;;;6.18;1.52;;;12.60;98.50;;;;;;5016976;28;20186;-86
2023/06/04 06:18:30;;;;;;;3.95;1.40;;;12.80;98.90;;;;;;5015505;28;20182;-87
2023/06/04 06:20:56;;;;;;;4.95;1.45;;;12.90;99.00;;;;;;5015781;28;20183;-88
2023/06/04 06:23:23;;;;;;;4.22;1.27;;;13.00;99.00;;;;;;5015454;28;20271;-88
2023/06/04 06:25:51;;;;;;;3.88;1.33;;;13.10;98.90;;;;;;5015788;28;20179;-88
2023/06/04 06:28:18;;;;;;;3.38;1.40;;;13.20;98.60;;;;;;5015859;28;20182;-89
2023/06/04 06:30:44;;;;;;;1.33;1.02;;;13.30;99.30;;;;;;5015311;28;20238;-89
2023/06/04 06:33:10;;;;;;;4.18;1.60;;;13.40;99.00;;;;;;5032310;28;20333;-89
2023/06/04 06:35:36;;;;;;;2.83;1.25;;;13.60;99.40;;;;;;5015682;28;20183;-88
2023/06/04 06:38:02;;;;;;;3.55;1.70;;;13.70;99.50;;;;;;5015416;28;20175;-86
2023/06/04 06:40:30;;;;;;;5.43;1.52;;;13.80;99.00;;;;;;5016642;28;20179;-88
2023/06/04 06:42:56;;;;;;;1.73;1.40;;;14.00;99.50;;;;;;5015530;28;20520;-88
2023/06/04 06:45:22;;;;;;;3.58;1.38;;;14.10;99.10;;;;;;5015095;28;20218;-88
2023/06/04 06:47:48;;;;;;;3.65;1.02;;;14.30;98.30;;;;;;5015525;28;20245;-88
2023/06/04 06:50:14;;;;;;;1.73;1.23;;;14.50;98.50;;;;;;5015217;28;20577;-87
2023/06/04 06:52:39;;;;;;;3.42;1.35;;;14.60;97.80;;;;;;5016153;28;20607;-88
2023/06/04 06:55:06;;;;;;;5.85;1.20;;;14.80;97.90;;;;;;5015652;28;20237;-90
2023/06/04 06:57:33;;;;;;;7.47;1.70;;;15.00;97.70;;;;;;5015599;28;20194;-89
2023/06/04 06:59:59;;;;;;;4.82;1.42;;;15.20;97.60;;;;;;5015483;28;20618;-90
2023/06/04 07:02:25;;;;;;;2.13;1.30;;;15.30;96.90;;;;;;5015116;28;20233;-89
2023/06/04 07:04:53;;;;;;;1.67;1.30;;;15.60;96.90;;;;;;5014717;28;20211;-89
2023/06/04 07:07:19;;;;;;;3.33;1.23;;;15.70;95.40;;;;;;5014980;28;20262;-88
2023/06/04 07:09:45;;;;;;;3.47;1.50;;;16.00;96.60;;;;;;5015246;28;20669;-89
2023/06/04 07:12:10;;;;;;;1.92;1.20;;;16.20;96.00;;;;;;5015200;28;20524;-90
2023/06/04 07:14:36;;;;;;;2.15;1.17;;;16.40;94.60;;;;;;5016097;28;20509;-87
2023/06/04 07:17:02;;;;;;;3.75;1.38;;;16.50;93.50;;;;;;5016062;28;20177;-88
2023/06/04 07:19:27;;;;;;;2.40;0.85;;;16.60;92.70;;;;;;5015668;28;20485;-88
2023/06/04 07:21:55;;;;;;;3.85;1.15;;;16.80;91.00;;;;;;5014767;28;20183;-93
2023/06/04 07:24:21;;;;;;;4.55;1.30;;;16.90;91.70;;;;;;5015173;28;20676;-87
2023/06/04 07:26:48;;;;;;;2.20;1.10;;;17.00;92.20;;;;;;5015086;28;20182;-88
2023/06/04 07:29:13;;;;;;;2.38;1.17;;;17.10;90.70;;;;;;5014545;28;20231;-87
2023/06/04 07:31:40;;;;;;;3.08;1.10;;;17.20;88.70;;;;;;5014788;28;20179;-89
2023/06/04 07:34:06;;;;;;;3.85;1.30;;;17.20;83.30;;;;;;5015952;28;20192;-88
2023/06/04 07:36:32;;;;;;;3.65;1.55;;;17.20;85.60;;;;;;5031286;28;20183;-88
2023/06/04 07:38:58;;;;;;;1.92;1.10;;;17.30;88.30;;;;;;5015017;28;20183;-88
2023/06/04 07:41:25;;;;;;;1.95;1.13;;;17.40;88.80;;;;;;5016062;28;20262;-86
2023/06/04 07:43:52;;;;;;;1.63;1.02;;;17.60;86.60;;;;;;5014396;28;20215;-89
2023/06/04 07:46:20;;;;;;;1.55;0.90;;;17.90;90.00;;;;;;5015701;28;20199;-88
2023/06/04 07:48:46;;;;;;;1.35;0.98;;;18.00;90.00;;;;;;5014310;28;20503;-88
2023/06/04 07:51:13;;;;;;;3.25;1.05;;;18.10;90.00;;;;;;5014491;28;20182;-90
2023/06/04 07:53:42;;;;;;;2.63;1.15;;;18.30;90.60;;;;;;5015741;28;20175;-92
2023/06/04 07:56:07;;;;;;;2.72;1.42;;;18.30;90.70;;;;;;5014701;28;20182;-89
2023/06/04 07:58:33;;;;;;;6.57;1.23;;;18.60;89.70;;;;;;5015486;28;20179;-89
2023/06/04 08:00:59;;;;;;;1.77;1.10;;;18.40;88.20;;;;;;5013894;28;20187;-88
2023/06/04 08:03:24;;;;;;;3.08;1.00;;;18.60;90.60;;;;;;5013804;28;20206;-90
2023/06/04 08:05:50;;;;;;;1.73;0.95;;;18.70;87.00;;;;;;5030598;28;20183;-87
2023/06/04 08:08:16;;;;;;;2.78;0.95;;;18.70;89.90;;;;;;5015430;28;20217;-89
2023/06/04 08:10:42;;;;;;;2.22;1.13;;;18.90;88.50;;;;;;5014333;28;20182;-87
2023/06/04 08:13:09;;;;;;;3.80;1.10;;;19.00;87.50;;;;;;5015256;28;20203;-90
2023/06/04 08:15:35;;;;;;;1.25;0.80;;;18.90;85.20;;;;;;5013526;28;20183;-88
2023/06/04 08:18:01;;;;;;;3.55;1.10;;;19.00;87.60;;;;;;5014245;28;20180;-90
2023/06/04 08:20:27;;;;;;;3.08;0.90;;;19.20;83.70;;;;;;5013429;28;20188;-91
2023/06/04 08:22:52;;;;;;;1.50;1.00;;;19.40;85.30;;;;;;5015007;28;20511;-89
2023/06/04 08:25:18;;;;;;;2.25;1.08;;;19.50;82.80;;;;;;5015104;28;20203;-91
2023/06/04 08:27:44;;;;;;;1.73;0.90;;;19.60;77.80;;;;;;5014154;28;20182;-90
2023/06/04 08:30:10;;;;;;;5.15;1.05;;;19.40;75.70;;;;;;5013618;28;20245;-90
2023/06/04 08:32:36;;;;;;;5.18;1.00;;;19.40;75.90;;;;;;5013536;28;20175;-90
2023/06/04 08:35:02;;;;;;;1.20;0.90;;;19.50;79.70;;;;;;5029979;28;20214;-89
2023/06/04 08:37:28;;;;;;;1.90;0.98;;;19.60;74.40;;;;;;5013694;28;20171;-86
2023/06/04 08:39:54;;;;;;;2.20;0.90;;;19.80;76.30;;;;;;5013732;28;20191;-86
2023/06/04 08:42:29;;;;;;;1.58;1.00;;;19.80;78.50;;;;;;5013368;28;20205;-86
2023/06/04 08:44:57;;;;;;;2.80;0.80;;;19.80;73.00;;;;;;5029932;28;20206;-89
2023/06/04 08:47:26;;;;;;;5.80;1.02;;;19.90;72.50;;;;;;5029800;28;20186;-86
2023/06/04 08:49:52;;;;;;;2.65;0.90;;;20.00;73.90;;;;;;5014658;28;20179;-85
2023/06/04 08:52:21;;;;;;;5.25;0.85;;;20.20;78.20;;;;;;5013402;28;20179;-86
2023/06/04 08:54:51;;;;;;;2.45;1.00;;;20.30;74.60;;;;;;5029806;28;20639;-86
2023/06/04 08:57:20;;;;;;;1.90;0.98;;;20.30;71.80;;;;;;5014505;28;20171;-86
2023/06/04 08:59:47;;;;;;;1.98;1.23;;;20.30;71.40;;;;;;5012988;28;20194;-87
2023/06/04 09:02:14;;;;;;;1.40;0.95;;;20.30;75.20;;;;;;5014115;28;20194;-86
2023/06/04 09:04:40;;;;;;;1.58;1.05;;;20.40;74.50;;;;;;5014401;28;20269;-87
2023/06/04 09:07:08;;;;;;;3.03;0.90;;;20.50;72.30;;;;;;5029907;28;20609;-86
2023/06/04 09:09:38;;;;;;;1.65;0.90;;;20.60;72.60;;;;;;5013077;28;20755;-86
2023/06/04 09:12:10;;;;;;;1.08;0.73;;;20.50;68.50;;;;;;5014091;28;20980;-86
2023/06/04 09:14:36;;;;;;;6.10;1.17;;;20.70;70.70;;;;;;5013067;28;20186;-91
2023/06/04 09:17:01;;;;;;;1.92;0.57;;;20.70;75.20;;;;;;5029336;28;20171;-89
2023/06/04 09:19:27;;;;;;;4.03;1.17;;;20.90;71.90;;;;;;5029454;28;20179;-92
2023/06/04 09:21:58;;;;;;;3.35;1.10;;;20.90;69.80;;;;;;5014165;28;20202;-90
2023/06/04 09:24:38;;;;;;;0.93;0.70;;;20.90;70.00;;;;;;5014291;28;20534;-89
2023/06/04 09:27:13;;;;;;;3.70;0.90;;;21.10;68.90;;;;;;5015525;28;20683;-90
2023/06/04 09:29:48;;;;;;;4.50;1.00;;;21.30;72.50;;;;;;5016724;28;20234;-86
2023/06/04 09:32:13;;;;;;;2.83;0.80;;;21.30;68.20;;;;;;5033279;28;20249;-90
2023/06/04 09:34:44;;;;;;;4.15;0.85;;;21.10;69.50;;;;;;5018062;28;20592;-89
2023/06/04 09:37:17;;;;;;;0.90;0.70;;;21.30;68.20;;;;;;5018001;28;20246;-90
2023/06/04 09:39:43;;;;;;;0.98;0.80;;;21.30;68.50;;;;;;5016917;28;20675;-92
2023/06/04 09:42:09;;;;;;;1.77;0.80;;;21.30;65.30;;;;;;5018032;28;20167;-86
2023/06/04 09:44:47;;;;;;;1.08;0.70;;;21.30;65.50;;;;;;5033059;28;20237;-88
2023/06/04 09:47:12;;;;;;;1.25;0.70;;;21.30;66.20;;;;;;5017122;28;20314;-85
2023/06/04 09:49:46;;;;;;;1.70;0.95;;;21.40;68.00;;;;;;5016389;28;20210;-85
2023/06/04 09:52:13;;;;;;;2.78;1.05;;;21.50;70.00;;;;;;5018027;28;20250;-85
2023/06/04 09:54:41;;;;;;;1.75;0.90;;;21.60;68.80;;;;;;5033208;28;20338;-86
2023/06/04 09:57:18;;;;;;;4.20;1.20;;;21.60;69.80;;;;;;5016484;28;20237;-86
2023/06/04 09:59:46;;;;;;;1.80;0.80;;;21.80;69.70;;;;;;5016583;28;20197;-86
2023/06/04 10:02:13;;;;;;;4.25;1.08;;;21.90;67.50;;;;;;5016054;28;20182;-87
2023/06/04 10:04:45;;;;;;;3.53;1.00;;;21.80;66.40;;;;;;5017606;28;20527;-89
2023/06/04 10:07:12;;;;;;;2.67;1.00;;;22.00;70.10;;;;;;5017882;28;20160;-86
2023/06/04 10:09:45;;;;;;;1.73;0.88;;;22.00;72.30;;;;;;5016433;28;20226;-93
2023/06/04 10:12:16;;;;;;;2.95;0.90;;;21.90;68.60;;;;;;5016290;28;20653;-88
2023/06/04 10:14:54;;;;;;;1.85;0.90;;;21.70;64.30;;;;;;5017166;28;20195;-89
2023/06/04 10:17:24;;;;;;;2.45;0.90;;;21.70;66.00;;;;;;5016289;28;20195;-88
2023/06/04 10:19:53;;;;;;;1.33;0.98;;;21.60;66.90;;;;;;5016130;28;20183;-90
2023/06/04 10:22:20;;;;;;;1.38;0.80;;;21.70;66.60;;;;;;5016218;28;20183;-89
2023/06/04 10:24:46;;;;;;;1.15;0.80;;;21.70;67.90;;;;;;5015917;28;20650;-87
2023/06/04 10:27:13;;;;;;;1.23;0.90;;;21.60;66.10;;;;;;5015907;28;20179;-92
2023/06/04 10:29:39;;;;;;;1.50;0.80;;;21.70;67.70;;;;;;5015905;28;20231;-88
2023/06/04 10:32:05;;;;;;;2.40;0.82;;;21.80;67.70;;;;;;5015567;28;20233;-89
2023/06/04 10:34:32;;;;;;;2.20;0.90;;;22.00;68.20;;;;;;5015647;28;20265;-86
2023/06/04 10:36:58;;;;;;;2.35;1.05;;;22.10;68.70;;;;;;5015690;28;20183;-89
2023/06/04 10:39:29;;;;;;;2.45;0.80;;;22.20;65.70;;;;;;5014910;28;20564;-89
2023/06/04 10:42:07;;;;;;;0.95;0.68;;;22.20;66.20;;;;;;5015402;28;20184;-91
2023/06/04 10:44:47;;;;;;;1.80;0.90;;;22.40;67.50;;;;;;5015214;28;20217;-87
2023/06/04 10:47:24;;;;;;;2.17;1.02;;;22.40;66.90;;;;;;5015424;28;20186;-86
2023/06/04 10:49:54;;;;;;;4.10;0.90;;;22.50;67.50;;;;;;5015427;28;20199;-88
2023/06/04 10:52:21;;;;;;;2.95;0.88;;;22.40;66.10;;;;;;5016448;28;20175;-85
2023/06/04 10:54:53;;;;;;;1.48;0.80;;;22.50;68.50;;;;;;5016587;28;20245;-93
2023/06/04 10:57:19;;;;;;;6.60;1.08;;;22.50;66.50;;;;;;5015889;28;20541;-91
2023/06/04 10:59:58;;;;;;;1.23;1.00;;;22.60;66.90;;;;;;5031697;28;20191;-92
2023/06/04 11:02:25;;;;;;;1.58;1.00;;;22.60;67.70;;;;;;5015098;28;20198;-89
2023/06/04 11:05:08;;;;;;;3.33;1.00;;;22.50;67.80;;;;;;5031726;28;20310;-87
2023/06/04 11:07:43;;;;;;;2.38;0.82;;;22.50;69.50;;;;;;5031940;28;20186;-90
2023/06/04 11:10:10;;;;;;;4.63;1.10;;;22.70;68.10;;;;;;5015447;28;20262;-91
2023/06/04 11:12:52;;;;;;;4.13;1.02;;;22.60;64.90;;;;;;5016361;28;20167;-86
2023/06/04 11:15:19;;;;;;;4.40;0.85;;;22.70;67.40;;;;;;5015286;28;20170;-92
2023/06/04 11:17:58;;;;;;;3.17;1.00;;;22.80;66.40;;;;;;5015294;28;20218;-87
2023/06/04 11:20:24;;;;;;;2.22;0.90;;;22.90;65.70;;;;;;5014827;28;20182;-88
2023/06/04 11:22:57;;;;;;;2.00;1.00;;;23.00;65.20;;;;;;5031644;28;20642;-89
2023/06/04 11:25:25;;;;;;;2.75;1.00;;;23.10;65.70;;;;;;5014843;28;20207;-91
2023/06/04 11:27:53;;;;;;;2.72;0.73;;;23.10;63.50;;;;;;5008098;28;20190;-85
2023/06/04 11:30:19;;;;;;;1.63;0.80;;;23.20;65.20;;;;;;5014317;28;20640;-91
2023/06/04 11:32:45;;;;;;;1.25;0.80;;;23.20;66.00;;;;;;5035230;28;20186;-89
2023/06/04 11:35:11;;;;;;;1.00;0.80;;;23.40;65.10;;;;;;5030349;28;20176;-89
2023/06/04 11:37:37;;;;;;;1.88;1.00;;;23.30;62.70;;;;;;5014837;28;20179;-89
2023/06/04 11:40:14;;;;;;;1.30;0.90;;;23.40;62.90;;;;;;5015659;28;20175;-88
2023/06/04 11:42:43;;;;;;;1.40;0.80;;;23.20;62.20;;;;;;5015836;28;20234;-89
2023/06/04 11:45:10;;;;;;;3.10;0.90;;;23.20;63.50;;;;;;5014693;28;20668;-91
2023/06/04 11:47:36;;;;;;;2.63;0.80;;;23.30;68.60;;;;;;5014573;28;20630;-91
2023/06/04 11:50:01;;;;;;;2.55;0.90;;;23.40;65.10;;;;;;5014676;28;20230;-91
2023/06/04 11:52:28;;;;;;;1.85;0.90;;;23.40;67.20;;;;;;5030716;28;20233;-87
2023/06/04 11:54:54;;;;;;;2.13;0.90;;;23.50;61.30;;;;;;5013991;28;20179;-87
2023/06/04 11:57:20;;;;;;;5.25;1.00;;;23.60;62.00;;;;;;5030884;28;20189;-92
2023/06/04 11:59:46;;;;;;;1.40;0.95;;;23.50;63.90;;;;;;5015715;28;20164;-88
2023/06/04 12:02:11;;;;;;;1.98;0.93;;;23.60;65.50;;;;;;5013785;28;20175;-87
2023/06/04 12:04:37;;;;;;;2.60;1.00;;;23.50;59.10;;;;;;5014064;28;20298;-88
2023/06/04 12:07:05;;;;;;;2.25;1.00;;;23.30;59.60;;;;;;5030328;28;20525;-87
2023/06/04 12:09:39;;;;;;;5.50;1.00;;;23.40;60.30;;;;;;5013970;28;20184;-87
2023/06/04 12:12:06;;;;;;;1.30;0.80;;;23.30;63.90;;;;;;5013966;28;20183;-85
2023/06/04 12:14:32;;;;;;;2.08;0.73;;;23.60;59.40;;;;;;5014611;28;20527;-88
2023/06/04 12:17:05;;;;;;;1.55;1.00;;;23.70;65.90;;;;;;5014984;28;20628;-87
2023/06/04 12:19:31;;;;;;;1.58;0.77;;;23.80;60.40;;;;;;5014063;28;20265;-88
2023/06/04 12:22:06;;;;;;;1.17;0.98;;;23.90;62.70;;;;;;5013609;28;20175;-89
2023/06/04 12:24:53;;;;;;;2.45;1.73;;;23.90;62.60;;;;;;5013708;28;20210;-87
2023/06/04 12:27:21;;;;;;;1.85;1.20;;;24.00;59.60;;;;;;5013876;28;20509;-85
2023/06/04 12:30:00;;;;;;;2.55;0.90;;;24.20;60.00;;;;;;5013333;28;20686;-88
2023/06/04 12:32:26;;;;;;;1.35;0.90;;;24.20;59.50;;;;;;5029538;28;20225;-85
2023/06/04 12:34:52;;;;;;;1.50;0.90;;;24.10;59.40;;;;;;5013690;28;20515;-88
2023/06/04 12:37:20;;;;;;;1.10;0.70;;;24.30;62.40;;;;;;5014553;28;20635;-86
2023/06/04 12:39:46;;;;;;;4.13;0.90;;;24.40;60.30;;;;;;5013387;28;20266;-85
2023/06/04 12:42:12;;;;;;;4.00;0.90;;;24.40;59.30;;;;;;5013264;28;20265;-86
2023/06/04 12:44:41;;;;;;;1.08;0.85;;;24.40;60.00;;;;;;5014018;28;20203;-86
2023/06/04 12:47:08;;;;;;;2.25;0.88;;;24.40;61.20;;;;;;5014003;28;20626;-86
2023/06/04 12:49:34;;;;;;;3.35;0.90;;;24.50;61.50;;;;;;5013180;28;20175;-87
2023/06/04 12:52:00;;;;;;;4.45;0.88;;;24.60;64.40;;;;;;5029537;28;20614;-87